createdAt,value
2023-05-12T00:00:43.204Z,0.00
2023-05-12T00:01:43.635Z,0.00
2023-05-12T00:02:44.205Z,0.00
2023-05-12T00:03:44.677Z,0.00
2023-05-12T00:04:44.981Z,0.00
2023-05-12T00:05:45.356Z,0.00
2023-05-12T00:06:45.803Z,0.00
2023-05-12T00:07:46.222Z,0.00
2023-05-12T00:08:46.656Z,0.00
2023-05-12T00:09:47.083Z,0.00
2023-05-12T00:10:47.521Z,0.00
2023-05-12T00:11:47.960Z,0.00
2023-05-12T00:12:48.376Z,0.00
2023-05-12T00:13:48.844Z,0.00
2023-05-12T00:14:49.243Z,0.00
2023-05-12T00:15:49.669Z,0.00
2023-05-12T00:16:50.115Z,0.00
2023-05-12T00:17:50.548Z,0.00
2023-05-12T00:18:50.979Z,0.00
2023-05-12T00:19:51.393Z,0.00
2023-05-12T00:20:51.824Z,0.00
2023-05-12T00:21:52.255Z,0.00
2023-05-12T00:22:52.709Z,0.00
2023-05-12T00:23:53.126Z,0.00
2023-05-12T00:24:53.549Z,0.00
2023-05-12T00:25:54.001Z,0.00
2023-05-12T00:26:54.409Z,0.00
2023-05-12T00:27:54.837Z,0.00
2023-05-12T00:28:55.271Z,0.00
2023-05-12T00:29:55.708Z,0.00
2023-05-12T00:30:56.134Z,0.00
2023-05-12T00:31:56.658Z,0.00
2023-05-12T00:32:57.081Z,0.00
2023-05-12T00:33:57.426Z,0.00
2023-05-12T00:34:57.861Z,0.00
2023-05-12T00:35:58.300Z,0.00
2023-05-12T00:36:58.722Z,0.00
2023-05-12T00:37:59.154Z,0.00
2023-05-12T00:38:59.584Z,0.00
2023-05-12T00:40:00.030Z,0.00
2023-05-12T00:41:00.446Z,0.00
2023-05-12T00:42:00.874Z,0.00
2023-05-12T00:43:01.307Z,0.00
2023-05-12T00:44:01.772Z,0.00
2023-05-12T00:45:02.176Z,0.00
2023-05-12T00:46:02.651Z,0.00
2023-05-12T00:47:03.024Z,0.00
2023-05-12T00:48:03.544Z,0.00
2023-05-12T00:49:03.892Z,0.00
2023-05-12T00:50:04.326Z,0.00
2023-05-12T00:51:04.756Z,0.00
2023-05-12T00:52:05.184Z,0.00
2023-05-12T00:53:05.617Z,0.00
2023-05-12T00:54:06.042Z,0.00
2023-05-12T00:55:06.480Z,0.00
2023-05-12T00:56:06.907Z,0.00
2023-05-12T00:57:07.357Z,0.00
2023-05-12T00:58:07.770Z,0.00
2023-05-12T00:59:08.209Z,0.00
2023-05-12T01:00:08.639Z,0.00
2023-05-12T01:01:09.102Z,0.00
2023-05-12T01:02:09.535Z,0.00
2023-05-12T01:03:09.989Z,0.00
2023-05-12T01:04:10.359Z,0.00
2023-05-12T01:05:10.792Z,0.00
2023-05-12T01:06:11.213Z,0.00
2023-05-12T01:07:11.638Z,0.00
2023-05-12T01:08:12.073Z,0.00
2023-05-12T01:09:12.510Z,0.00
2023-05-12T01:10:12.943Z,0.00
2023-05-12T01:11:13.393Z,0.00
2023-05-12T01:12:13.801Z,0.00
2023-05-12T01:13:14.221Z,0.00
2023-05-12T01:14:14.657Z,0.00
2023-05-12T01:15:15.091Z,0.00
2023-05-12T01:16:15.514Z,0.00
2023-05-12T01:17:15.956Z,0.00
2023-05-12T01:18:16.418Z,0.00
2023-05-12T01:19:16.833Z,0.00
2023-05-12T01:20:17.373Z,0.00
2023-05-12T01:21:17.688Z,0.00
2023-05-12T01:22:18.116Z,0.00
2023-05-12T01:23:18.614Z,0.00
2023-05-12T01:24:18.966Z,0.00
2023-05-12T01:25:19.393Z,0.00
2023-05-12T01:26:19.817Z,0.00
2023-05-12T01:27:20.249Z,0.00
2023-05-12T01:28:20.675Z,0.00
2023-05-12T01:29:21.114Z,0.00
2023-05-12T01:30:21.873Z,0.00
2023-05-12T01:31:21.983Z,0.00
2023-05-12T01:32:22.481Z,0.00
2023-05-12T01:33:22.832Z,0.00
2023-05-12T01:34:23.259Z,0.00
2023-05-12T01:35:23.689Z,0.00
2023-05-12T01:36:24.119Z,0.00
2023-05-12T01:37:24.560Z,0.00
2023-05-12T01:38:24.984Z,0.00
2023-05-12T01:39:25.408Z,0.00
2023-05-12T01:40:25.841Z,0.00
2023-05-12T01:41:26.270Z,0.00
2023-05-12T01:42:26.701Z,0.00
2023-05-12T01:43:27.127Z,0.00
2023-05-12T01:44:27.557Z,0.00
2023-05-12T01:45:27.990Z,0.00
2023-05-12T01:46:28.449Z,0.00
2023-05-12T01:47:28.869Z,0.00
2023-05-12T01:48:29.278Z,0.00
2023-05-12T01:49:29.707Z,0.00
2023-05-12T01:50:30.144Z,0.00
2023-05-12T01:51:30.568Z,0.00
2023-05-12T01:52:30.998Z,0.00
2023-05-12T01:53:31.457Z,0.00
2023-05-12T01:54:31.870Z,0.00
2023-05-12T01:55:32.291Z,0.00
2023-05-12T01:56:32.714Z,0.00
2023-05-12T01:57:33.150Z,0.00
2023-05-12T01:58:33.576Z,0.00
2023-05-12T01:59:34.025Z,0.00
2023-05-12T02:00:34.436Z,0.00
2023-05-12T02:01:34.894Z,0.00
2023-05-12T02:02:35.380Z,0.00
2023-05-12T02:03:35.771Z,0.00
2023-05-12T02:04:36.159Z,0.00
2023-05-12T02:05:36.586Z,0.00
2023-05-12T02:06:37.016Z,0.00
2023-05-12T02:07:37.448Z,0.00
2023-05-12T02:08:37.920Z,0.00
2023-05-12T02:09:38.303Z,0.00
2023-05-12T02:10:38.766Z,0.00
2023-05-12T02:11:39.159Z,0.00
2023-05-12T02:12:39.596Z,0.00
2023-05-12T02:13:40.026Z,0.00
2023-05-12T02:14:40.454Z,0.00
2023-05-12T02:15:40.886Z,0.00
2023-05-12T02:16:41.417Z,0.00
2023-05-12T02:17:41.767Z,0.00
2023-05-12T02:18:42.219Z,0.00
2023-05-12T02:19:42.604Z,0.00
2023-05-12T02:20:43.028Z,0.00
2023-05-12T02:21:43.466Z,0.00
2023-05-12T02:22:43.893Z,0.00
2023-05-12T02:23:44.322Z,0.00
2023-05-12T02:24:44.772Z,0.00
2023-05-12T02:25:45.181Z,0.00
2023-05-12T02:26:45.618Z,0.00
2023-05-12T02:27:46.063Z,0.00
2023-05-12T02:28:46.471Z,0.00
2023-05-12T02:29:46.898Z,0.00
2023-05-12T02:30:47.330Z,0.00
2023-05-12T02:31:47.778Z,0.00
2023-05-12T02:32:48.233Z,0.00
2023-05-12T02:33:48.618Z,0.00
2023-05-12T02:34:49.050Z,0.00
2023-05-12T02:35:49.477Z,0.00
2023-05-12T02:36:49.914Z,0.00
2023-05-12T02:37:50.335Z,0.00
2023-05-12T02:38:50.780Z,0.00
2023-05-12T02:39:51.189Z,0.00
2023-05-12T02:40:51.622Z,0.00
2023-05-12T02:41:52.054Z,0.00
2023-05-12T02:42:52.488Z,0.00
2023-05-12T02:43:52.912Z,0.00
2023-05-12T02:44:53.339Z,0.00
2023-05-12T02:45:53.810Z,0.00
2023-05-12T02:46:54.196Z,0.00
2023-05-12T02:47:54.649Z,0.00
2023-05-12T02:48:55.058Z,0.00
2023-05-12T02:49:55.494Z,0.00
2023-05-12T02:50:55.926Z,0.00
2023-05-12T02:51:56.364Z,0.00
2023-05-12T02:52:56.771Z,0.00
2023-05-12T02:53:57.221Z,0.00
2023-05-12T02:54:57.633Z,0.00
2023-05-12T02:55:58.060Z,0.00
2023-05-12T02:56:58.488Z,0.00
2023-05-12T02:57:58.927Z,0.00
2023-05-12T02:58:59.352Z,0.00
2023-05-12T02:59:59.777Z,0.00
2023-05-12T03:01:09.762Z,0.00
2023-05-12T03:02:00.697Z,0.00
2023-05-12T03:03:01.187Z,0.00
2023-05-12T03:04:01.495Z,0.00
2023-05-12T03:05:01.934Z,0.00
2023-05-12T03:06:02.353Z,0.00
2023-05-12T03:07:02.783Z,0.00
2023-05-12T03:08:03.218Z,0.00
2023-05-12T03:09:03.647Z,0.00
2023-05-12T03:10:04.073Z,0.00
2023-05-12T03:11:04.502Z,0.00
2023-05-12T03:12:04.933Z,0.00
2023-05-12T03:13:05.359Z,0.00
2023-05-12T03:14:05.784Z,0.00
2023-05-12T03:15:06.209Z,0.00
2023-05-12T03:16:06.638Z,0.00
2023-05-12T03:17:07.108Z,5.63
2023-05-12T03:18:07.549Z,5.63
2023-05-12T03:19:07.961Z,5.63
2023-05-12T03:20:08.361Z,5.63
2023-05-12T03:21:08.781Z,5.63
2023-05-12T03:22:09.209Z,5.63
2023-05-12T03:23:09.636Z,5.63
2023-05-12T03:24:10.070Z,5.63
2023-05-12T03:25:10.531Z,5.63
2023-05-12T03:26:10.932Z,5.63
2023-05-12T03:27:11.350Z,5.63
2023-05-12T03:28:11.782Z,11.25
2023-05-12T03:29:12.209Z,11.25
2023-05-12T03:30:12.632Z,11.25
2023-05-12T03:31:13.093Z,11.25
2023-05-12T03:32:13.494Z,11.25
2023-05-12T03:33:13.926Z,11.25
2023-05-12T03:34:14.353Z,11.25
2023-05-12T03:35:14.783Z,11.25
2023-05-12T03:36:15.206Z,11.25
2023-05-12T03:37:15.636Z,16.88
2023-05-12T03:38:16.070Z,16.88
2023-05-12T03:39:16.496Z,16.88
2023-05-12T03:40:16.958Z,16.88
2023-05-12T03:41:17.365Z,16.88
2023-05-12T03:42:17.778Z,16.88
2023-05-12T03:43:18.206Z,16.88
2023-05-12T03:44:18.632Z,16.88
2023-05-12T03:45:19.067Z,16.88
2023-05-12T03:46:19.536Z,22.50
2023-05-12T03:47:20.031Z,22.50
2023-05-12T03:48:20.441Z,22.50
2023-05-12T03:49:20.776Z,22.50
2023-05-12T03:50:21.414Z,22.50
2023-05-12T03:51:21.635Z,22.50
2023-05-12T03:52:22.059Z,22.50
2023-05-12T03:53:22.483Z,22.50
2023-05-12T03:54:23.046Z,22.50
2023-05-12T03:55:23.344Z,28.13
2023-05-12T03:56:23.782Z,28.13
2023-05-12T03:57:24.201Z,28.13
2023-05-12T03:58:24.630Z,28.13
2023-05-12T03:59:25.073Z,28.13
2023-05-12T04:00:25.485Z,33.75
2023-05-12T04:01:25.920Z,33.75
2023-05-12T04:02:26.487Z,33.75
2023-05-12T04:03:26.837Z,39.38
2023-05-12T04:04:27.204Z,39.38
2023-05-12T04:05:27.633Z,45.00
2023-05-12T04:06:28.060Z,45.00
2023-05-12T04:07:28.495Z,45.00
2023-05-12T04:08:28.970Z,50.63
2023-05-12T04:09:29.347Z,50.63
2023-05-12T04:10:29.802Z,50.63
2023-05-12T04:11:30.242Z,50.63
2023-05-12T04:12:30.637Z,50.63
2023-05-12T04:13:31.054Z,50.63
2023-05-12T04:14:41.687Z,50.63
2023-05-12T04:15:31.913Z,50.63
2023-05-12T04:16:32.526Z,50.63
2023-05-12T04:17:32.801Z,50.63
2023-05-12T04:18:33.228Z,50.63
2023-05-12T04:19:33.634Z,50.63
2023-05-12T04:20:34.056Z,50.63
2023-05-12T04:21:34.486Z,50.63
2023-05-12T04:22:34.916Z,50.63
2023-05-12T04:23:35.344Z,56.25
2023-05-12T04:24:35.770Z,56.25
2023-05-12T04:25:36.198Z,56.25
2023-05-12T04:26:36.630Z,61.88
2023-05-12T04:27:37.059Z,61.88
2023-05-12T04:28:37.488Z,67.50
2023-05-12T04:29:37.914Z,67.50
2023-05-12T04:30:38.342Z,73.13
2023-05-12T04:31:38.814Z,73.13
2023-05-12T04:32:39.210Z,73.13
2023-05-12T04:33:39.629Z,73.13
2023-05-12T04:34:40.087Z,73.13
2023-05-12T04:35:40.491Z,73.13
2023-05-12T04:36:40.917Z,73.13
2023-05-12T04:37:41.347Z,73.13
2023-05-12T04:38:41.778Z,78.75
2023-05-12T04:39:42.271Z,78.75
2023-05-12T04:40:42.632Z,84.38
2023-05-12T04:41:43.061Z,84.38
2023-05-12T04:42:43.506Z,90.00
2023-05-12T04:44:44.376Z,90.00
2023-05-12T04:45:44.790Z,90.00
2023-05-12T04:46:45.205Z,90.00
2023-05-12T04:47:45.704Z,90.00
2023-05-12T04:48:46.071Z,90.00
2023-05-12T04:49:49.286Z,95.63
2023-05-12T04:50:49.787Z,95.63
2023-05-12T04:51:47.359Z,101.25
2023-05-12T04:52:47.782Z,106.88
2023-05-12T04:53:48.210Z,112.50
2023-05-12T04:54:48.641Z,112.50
2023-05-12T04:55:49.071Z,118.13
2023-05-12T04:56:49.493Z,123.75
2023-05-12T04:57:49.932Z,123.75
2023-05-12T04:58:50.360Z,129.38
2023-05-12T04:59:50.793Z,129.38
2023-05-12T05:00:51.216Z,135.00
2023-05-12T05:01:51.837Z,129.38
2023-05-12T05:02:52.169Z,129.38
2023-05-12T05:03:52.734Z,123.75
2023-05-12T05:04:52.939Z,123.75
2023-05-12T05:05:53.365Z,112.50
2023-05-12T05:06:53.791Z,112.50
2023-05-12T05:07:54.220Z,112.50
2023-05-12T05:08:54.690Z,118.13
2023-05-12T05:09:55.098Z,123.75
2023-05-12T05:10:55.519Z,129.38
2023-05-12T05:11:55.945Z,135.00
2023-05-12T05:12:56.367Z,135.00
2023-05-12T05:13:56.800Z,140.63
2023-05-12T05:14:57.232Z,146.25
2023-05-12T05:15:57.720Z,146.25
2023-05-12T05:16:58.086Z,140.63
2023-05-12T05:18:00.682Z,146.25
2023-05-12T05:18:58.958Z,146.25
2023-05-12T05:19:59.999Z,146.25
2023-05-12T05:20:59.858Z,151.88
2023-05-12T05:22:00.236Z,146.25
2023-05-12T05:23:00.680Z,140.63
2023-05-12T05:24:01.098Z,129.38
2023-05-12T05:25:01.535Z,129.38
2023-05-12T05:26:01.961Z,123.75
2023-05-12T05:27:02.436Z,123.75
2023-05-12T05:28:02.821Z,118.13
2023-05-12T05:29:03.255Z,118.13
2023-05-12T05:30:03.681Z,118.13
2023-05-12T05:31:04.176Z,118.13
2023-05-12T05:32:04.564Z,123.75
2023-05-12T05:33:05.023Z,123.75
2023-05-12T05:34:05.436Z,123.75
2023-05-12T05:35:05.834Z,123.75
2023-05-12T05:36:06.268Z,123.75
2023-05-12T05:37:06.698Z,123.75
2023-05-12T05:38:07.127Z,123.75
2023-05-12T05:39:07.559Z,123.75
2023-05-12T05:40:08.055Z,123.75
2023-05-12T05:41:08.428Z,129.38
2023-05-12T05:42:08.900Z,129.38
2023-05-12T05:43:09.280Z,129.38
2023-05-12T05:44:09.717Z,129.38
2023-05-12T05:45:10.147Z,129.38
2023-05-12T05:46:10.574Z,129.38
2023-05-12T05:47:11.147Z,135.00
2023-05-12T05:48:11.461Z,135.00
2023-05-12T05:49:11.871Z,135.00
2023-05-12T05:50:12.292Z,140.63
2023-05-12T05:51:12.730Z,140.63
2023-05-12T05:52:13.163Z,140.63
2023-05-12T05:53:13.588Z,140.63
2023-05-12T05:54:14.024Z,146.25
2023-05-12T05:55:14.448Z,151.88
2023-05-12T05:56:14.883Z,146.25
2023-05-12T05:57:15.309Z,151.88
2023-05-12T05:58:15.738Z,151.88
2023-05-12T05:59:16.170Z,151.88
2023-05-12T06:00:16.603Z,151.88
2023-05-12T06:01:17.045Z,157.50
2023-05-12T06:02:17.581Z,157.50
2023-05-12T06:03:17.928Z,163.13
2023-05-12T06:04:18.394Z,163.13
2023-05-12T06:05:18.900Z,168.75
2023-05-12T06:06:19.212Z,168.75
2023-05-12T06:07:21.514Z,174.38
2023-05-12T06:08:20.068Z,174.38
2023-05-12T06:09:20.486Z,180.00
2023-05-12T06:10:21.133Z,180.00
2023-05-12T06:11:21.364Z,185.63
2023-05-12T06:12:21.777Z,191.25
2023-05-12T06:13:22.210Z,196.88
2023-05-12T06:14:22.645Z,208.13
2023-05-12T06:15:23.277Z,213.75
2023-05-12T06:16:23.565Z,219.38
2023-05-12T06:17:23.943Z,230.63
2023-05-12T06:18:24.397Z,236.25
2023-05-12T06:19:24.802Z,241.88
2023-05-12T06:20:25.235Z,247.50
2023-05-12T06:21:25.663Z,253.13
2023-05-12T06:22:26.106Z,253.13
2023-05-12T06:23:26.533Z,258.75
2023-05-12T06:24:26.964Z,275.63
2023-05-12T06:25:27.425Z,315.00
2023-05-12T06:26:27.827Z,472.50
2023-05-12T06:27:28.331Z,652.50
2023-05-12T06:28:28.701Z,815.63
2023-05-12T06:29:29.129Z,843.75
2023-05-12T06:30:29.630Z,866.25
2023-05-12T06:31:30.068Z,883.13
2023-05-12T06:32:30.525Z,905.63
2023-05-12T06:33:30.879Z,905.63
2023-05-12T06:34:31.320Z,922.50
2023-05-12T06:35:31.749Z,928.13
2023-05-12T06:36:32.189Z,933.75
2023-05-12T06:37:32.633Z,933.75
2023-05-12T06:38:33.111Z,922.50
2023-05-12T06:39:33.501Z,849.38
2023-05-12T06:40:33.948Z,776.25
2023-05-12T06:41:34.385Z,697.50
2023-05-12T06:42:34.830Z,686.25
2023-05-12T06:43:35.285Z,787.50
2023-05-12T06:44:40.011Z,1023.75
2023-05-12T06:45:36.169Z,1147.50
2023-05-12T06:46:36.651Z,1254.38
2023-05-12T06:47:37.062Z,1305.00
2023-05-12T06:48:37.492Z,1361.25
2023-05-12T06:49:37.941Z,1383.75
2023-05-12T06:50:38.435Z,1327.50
2023-05-12T06:51:38.829Z,1293.75
2023-05-12T06:52:39.270Z,1310.63
2023-05-12T06:53:39.711Z,1333.13
2023-05-12T06:54:40.155Z,1355.63
2023-05-12T06:55:40.685Z,1372.50
2023-05-12T06:56:41.060Z,1389.38
2023-05-12T06:57:41.505Z,1406.25
2023-05-12T06:58:41.947Z,1434.38
2023-05-12T06:59:42.394Z,1468.13
2023-05-12T07:00:42.842Z,1513.13
2023-05-12T07:01:43.443Z,1558.13
2023-05-12T07:02:43.757Z,1563.75
2023-05-12T07:03:44.203Z,1558.13
2023-05-12T07:04:44.641Z,1541.25
2023-05-12T07:05:45.097Z,1530.00
2023-05-12T07:06:45.539Z,1530.00
2023-05-12T07:07:45.990Z,1518.75
2023-05-12T07:08:46.442Z,1513.13
2023-05-12T07:09:46.894Z,1518.75
2023-05-12T07:10:47.407Z,1524.38
2023-05-12T07:11:47.809Z,1558.13
2023-05-12T07:12:48.254Z,1603.13
2023-05-12T07:13:48.707Z,1653.75
2023-05-12T07:14:49.161Z,1665.00
2023-05-12T07:15:49.634Z,1665.00
2023-05-12T07:16:50.056Z,1631.25
2023-05-12T07:17:50.511Z,1648.13
2023-05-12T07:18:50.980Z,1676.25
2023-05-12T07:19:51.418Z,1710.00
2023-05-12T07:20:51.875Z,1783.13
2023-05-12T07:21:52.332Z,1777.50
2023-05-12T07:22:52.781Z,1771.88
2023-05-12T07:23:53.238Z,1755.00
2023-05-12T07:24:53.718Z,1755.00
2023-05-12T07:25:54.152Z,1760.63
2023-05-12T07:26:54.622Z,1743.75
2023-05-12T07:27:55.120Z,1783.13
2023-05-12T07:28:55.529Z,1833.75
2023-05-12T07:29:55.970Z,1895.63
2023-05-12T07:30:56.522Z,1918.13
2023-05-12T07:31:56.878Z,1884.38
2023-05-12T07:32:57.380Z,1873.13
2023-05-12T07:33:57.844Z,1867.50
2023-05-12T07:34:58.254Z,1890.00
2023-05-12T07:35:58.716Z,1856.25
2023-05-12T07:36:59.173Z,1867.50
2023-05-12T07:37:59.621Z,1873.13
2023-05-12T07:39:00.093Z,1901.25
2023-05-12T07:40:00.533Z,1906.88
2023-05-12T07:41:01.008Z,1901.25
2023-05-12T07:42:01.451Z,1929.38
2023-05-12T07:43:01.910Z,1940.63
2023-05-12T07:44:02.366Z,1974.38
2023-05-12T07:45:02.825Z,1991.25
2023-05-12T07:46:03.287Z,1985.63
2023-05-12T07:47:03.753Z,1980.00
2023-05-12T07:48:04.281Z,1980.00
2023-05-12T07:49:04.673Z,1963.13
2023-05-12T07:50:05.123Z,1985.63
2023-05-12T07:51:05.580Z,2008.13
2023-05-12T07:52:06.039Z,2019.38
2023-05-12T07:53:06.505Z,1980.00
2023-05-12T07:54:06.954Z,1890.00
2023-05-12T07:55:07.440Z,1749.38
2023-05-12T07:56:07.937Z,1428.75
2023-05-12T07:57:08.456Z,1181.25
2023-05-12T07:58:08.797Z,1046.25
2023-05-12T07:59:09.256Z,1023.75
2023-05-12T08:00:09.717Z,1085.63
2023-05-12T08:01:10.193Z,1423.13
2023-05-12T08:02:10.717Z,1698.75
2023-05-12T08:03:11.156Z,1845.00
2023-05-12T08:04:11.652Z,1946.25
2023-05-12T08:05:12.034Z,2030.63
2023-05-12T08:06:12.484Z,2086.88
2023-05-12T08:07:12.958Z,2137.50
2023-05-12T08:08:13.409Z,2137.50
2023-05-12T08:09:13.877Z,2171.25
2023-05-12T08:10:16.939Z,2182.50
2023-05-12T08:11:14.796Z,2199.38
2023-05-12T08:12:15.255Z,2205.00
2023-05-12T08:13:15.735Z,2176.88
2023-05-12T08:14:16.176Z,2182.50
2023-05-12T08:15:16.635Z,2193.75
2023-05-12T08:16:17.138Z,2216.25
2023-05-12T08:17:17.629Z,2221.88
2023-05-12T08:18:18.067Z,2199.38
2023-05-12T08:19:18.486Z,2182.50
2023-05-12T08:20:18.967Z,2188.13
2023-05-12T08:21:19.415Z,2199.38
2023-05-12T08:22:19.873Z,2238.75
2023-05-12T08:23:20.358Z,2227.50
2023-05-12T08:24:20.805Z,2205.00
2023-05-12T08:25:21.430Z,2199.38
2023-05-12T08:26:21.805Z,2188.13
2023-05-12T08:27:22.205Z,2182.50
2023-05-12T08:28:22.655Z,2176.88
2023-05-12T08:29:23.113Z,2165.63
2023-05-12T08:30:23.636Z,2154.38
2023-05-12T08:31:24.088Z,2115.00
2023-05-12T08:32:26.511Z,2053.13
2023-05-12T08:33:24.962Z,1940.63
2023-05-12T08:34:25.427Z,1665.00
2023-05-12T08:35:25.891Z,1406.25
2023-05-12T08:36:26.349Z,1209.38
2023-05-12T08:37:26.813Z,1153.13
2023-05-12T08:38:27.273Z,1198.13
2023-05-12T08:39:27.731Z,1406.25
2023-05-12T08:40:28.194Z,1777.50
2023-05-12T08:41:28.796Z,2070.00
2023-05-12T08:42:29.110Z,2171.25
2023-05-12T08:43:29.572Z,2250.00
2023-05-12T08:44:30.031Z,2272.50
2023-05-12T08:45:30.501Z,2261.25
2023-05-12T08:46:31.004Z,2266.88
2023-05-12T08:47:31.433Z,2323.13
2023-05-12T08:48:31.870Z,2368.13
2023-05-12T08:49:32.338Z,2351.25
2023-05-12T08:50:32.805Z,2323.13
2023-05-12T08:51:33.253Z,2289.38
2023-05-12T08:52:33.699Z,2261.25
2023-05-12T08:53:34.170Z,2221.88
2023-05-12T08:54:37.850Z,2154.38
2023-05-12T08:55:35.337Z,1890.00
2023-05-12T08:57:37.495Z,978.75
2023-05-12T08:58:41.716Z,967.50
2023-05-12T08:59:36.920Z,1209.38
2023-05-12T09:00:37.427Z,1912.50
2023-05-12T09:01:37.867Z,2396.25
2023-05-12T09:02:51.959Z,2486.25
2023-05-12T09:03:38.889Z,2542.50
2023-05-12T09:04:39.249Z,2536.88
2023-05-12T09:05:39.686Z,2514.38
2023-05-12T09:06:40.139Z,2486.25
2023-05-12T09:07:40.605Z,2469.38
2023-05-12T09:08:41.073Z,2475.00
2023-05-12T09:09:41.520Z,2503.13
2023-05-12T09:10:42.006Z,2548.13
2023-05-12T09:11:42.481Z,2576.25
2023-05-12T09:12:42.912Z,2604.38
2023-05-12T09:13:43.374Z,2621.25
2023-05-12T09:14:43.826Z,2621.25
2023-05-12T09:15:44.287Z,2615.63
2023-05-12T09:16:44.768Z,2615.63
2023-05-12T09:17:48.004Z,2626.88
2023-05-12T09:18:45.694Z,2632.50
2023-05-12T09:19:46.161Z,2655.00
2023-05-12T09:20:46.598Z,2643.75
2023-05-12T09:21:47.061Z,2643.75
2023-05-12T09:22:47.525Z,2626.88
2023-05-12T09:23:47.982Z,2683.13
2023-05-12T09:24:48.459Z,2716.88
2023-05-12T09:25:48.945Z,2773.13
2023-05-12T09:26:49.446Z,2823.75
2023-05-12T09:27:49.836Z,2795.63
2023-05-12T09:28:50.291Z,2767.50
2023-05-12T09:29:59.396Z,2750.63
2023-05-12T09:30:51.217Z,2728.13
2023-05-12T09:31:51.714Z,2700.00
2023-05-12T09:32:52.189Z,2705.63
2023-05-12T09:33:52.609Z,2671.88
2023-05-12T09:34:53.066Z,2660.63
2023-05-12T09:35:53.529Z,2655.00
2023-05-12T09:36:53.998Z,2677.50
2023-05-12T09:37:54.467Z,2705.63
2023-05-12T09:38:54.941Z,2728.13
2023-05-12T09:39:55.385Z,2728.13
2023-05-12T09:40:55.853Z,2756.25
2023-05-12T09:41:56.374Z,2795.63
2023-05-12T09:42:56.780Z,2874.38
2023-05-12T09:44:00.098Z,2868.75
2023-05-12T09:44:57.725Z,2868.75
2023-05-12T09:45:58.223Z,2801.25
2023-05-12T09:46:58.659Z,2784.38
2023-05-12T09:47:59.162Z,2773.13
2023-05-12T09:48:59.580Z,2795.63
2023-05-12T09:50:00.041Z,2840.63
2023-05-12T09:51:00.512Z,2823.75
2023-05-12T09:52:00.959Z,2761.88
2023-05-12T09:53:01.437Z,2711.25
2023-05-12T09:54:01.890Z,2677.50
2023-05-12T09:55:02.398Z,2722.50
2023-05-12T09:56:04.569Z,2728.13
2023-05-12T09:57:03.365Z,2745.00
2023-05-12T09:58:03.747Z,2750.63
2023-05-12T09:59:04.220Z,2767.50
2023-05-12T10:00:07.448Z,2761.88
2023-05-12T10:01:21.911Z,2784.38
2023-05-12T10:02:13.465Z,2835.00
2023-05-12T10:03:06.106Z,2846.25
2023-05-12T10:04:06.581Z,2868.75
2023-05-12T10:05:07.149Z,2868.75
2023-05-12T10:06:08.126Z,2773.13
2023-05-12T10:07:07.928Z,2745.00
2023-05-12T10:08:08.404Z,2728.13
2023-05-12T10:09:08.874Z,2666.25
2023-05-12T10:10:09.321Z,2598.75
2023-05-12T10:11:09.781Z,2531.25
2023-05-12T10:12:10.303Z,2041.88
2023-05-12T10:13:10.723Z,1293.75
2023-05-12T10:14:11.210Z,1035.00
2023-05-12T10:15:11.668Z,1243.13
2023-05-12T10:16:12.243Z,1884.38
2023-05-12T10:17:12.684Z,2396.25
2023-05-12T10:18:13.083Z,2548.13
2023-05-12T10:19:13.628Z,2598.75
2023-05-12T10:20:14.148Z,2660.63
2023-05-12T10:21:14.434Z,2666.25
2023-05-12T10:22:14.912Z,2643.75
2023-05-12T10:23:15.389Z,2688.75
2023-05-12T10:24:15.871Z,2683.13
2023-05-12T10:25:16.316Z,2700.00
2023-05-12T10:26:16.777Z,2739.38
2023-05-12T10:27:17.321Z,2778.75
2023-05-12T10:28:17.722Z,2801.25
2023-05-12T10:29:18.225Z,2846.25
2023-05-12T10:30:18.688Z,2829.38
2023-05-12T10:31:19.158Z,2818.13
2023-05-12T10:32:19.600Z,2863.13
2023-05-12T10:33:20.062Z,2891.25
2023-05-12T10:34:20.518Z,2874.38
2023-05-12T10:35:23.578Z,2902.50
2023-05-12T10:36:21.456Z,2964.38
2023-05-12T10:37:21.924Z,2970.00
2023-05-12T10:38:22.426Z,2941.88
2023-05-12T10:39:22.865Z,2913.75
2023-05-12T10:40:23.328Z,2851.88
2023-05-12T10:41:23.806Z,2998.13
2023-05-12T10:42:24.298Z,2992.50
2023-05-12T10:43:29.621Z,2902.50
2023-05-12T10:44:25.225Z,2992.50
2023-05-12T10:45:32.576Z,3093.75
2023-05-12T10:46:26.198Z,3138.75
2023-05-12T10:47:26.698Z,3144.38
2023-05-12T10:48:27.065Z,3172.50
2023-05-12T10:49:27.536Z,3189.38
2023-05-12T10:50:28.006Z,3121.88
2023-05-12T10:51:28.557Z,3110.63
2023-05-12T10:52:28.939Z,3172.50
2023-05-12T10:53:41.452Z,3161.25
2023-05-12T10:54:29.875Z,3183.75
2023-05-12T10:55:30.426Z,3172.50
2023-05-12T10:56:31.106Z,3161.25
2023-05-12T10:57:31.607Z,3133.13
2023-05-12T10:58:32.013Z,3082.50
2023-05-12T10:59:35.358Z,2986.88
2023-05-12T11:00:33.171Z,3093.75
2023-05-12T11:01:33.464Z,3088.13
2023-05-12T11:02:36.928Z,3071.25
2023-05-12T11:03:34.788Z,3026.25
2023-05-12T11:04:34.689Z,3015.00
2023-05-12T11:05:35.161Z,2902.50
2023-05-12T11:06:36.365Z,2812.50
2023-05-12T11:07:37.285Z,2733.75
2023-05-12T11:08:37.628Z,2722.50
2023-05-12T11:09:40.738Z,2711.25
2023-05-12T11:10:37.430Z,2722.50
2023-05-12T11:11:38.427Z,2711.25
2023-05-12T11:12:38.458Z,2733.75
2023-05-12T11:13:38.770Z,2688.75
2023-05-12T11:14:39.335Z,2458.13
2023-05-12T11:15:39.713Z,1816.88
2023-05-12T11:16:40.288Z,1271.25
2023-05-12T11:17:40.734Z,731.25
2023-05-12T11:18:41.149Z,669.38
2023-05-12T11:19:41.582Z,669.38
2023-05-12T11:20:42.061Z,793.13
2023-05-12T11:21:42.562Z,1248.75
2023-05-12T11:22:42.994Z,1670.63
2023-05-12T11:23:43.448Z,1901.25
2023-05-12T11:24:43.925Z,2171.25
2023-05-12T11:25:44.522Z,2356.88
2023-05-12T11:26:44.843Z,2351.25
2023-05-12T11:27:45.451Z,2036.25
2023-05-12T11:28:45.789Z,2424.38
2023-05-12T11:29:46.250Z,2401.88
2023-05-12T11:30:46.708Z,2458.13
2023-05-12T11:31:47.188Z,2548.13
2023-05-12T11:32:47.677Z,2407.50
2023-05-12T11:33:50.438Z,1096.88
2023-05-12T11:34:48.583Z,253.13
2023-05-12T11:35:49.028Z,230.63
2023-05-12T11:36:49.496Z,236.25
2023-05-12T11:38:14.153Z,236.25
2023-05-12T11:38:50.421Z,241.88
2023-05-12T11:39:50.884Z,253.13
2023-05-12T11:40:51.353Z,258.75
2023-05-12T11:41:59.342Z,270.00
2023-05-12T11:42:52.589Z,270.00
2023-05-12T11:43:52.710Z,264.38
2023-05-12T11:44:53.207Z,264.38
2023-05-12T11:45:53.665Z,230.63
2023-05-12T11:46:54.076Z,219.38
2023-05-12T11:47:54.573Z,213.75
2023-05-12T11:48:54.975Z,219.38
2023-05-12T11:49:55.456Z,219.38
2023-05-12T11:50:55.884Z,213.75
2023-05-12T11:51:56.327Z,202.50
2023-05-12T11:52:56.776Z,196.88
2023-05-12T11:53:57.231Z,196.88
2023-05-12T11:54:57.725Z,196.88
2023-05-12T11:55:58.114Z,202.50
2023-05-12T11:56:58.564Z,196.88
2023-05-12T11:57:59.044Z,202.50
2023-05-12T11:58:59.457Z,202.50
2023-05-12T11:59:59.897Z,202.50
2023-05-12T12:01:00.346Z,208.13
2023-05-12T12:02:00.846Z,219.38
2023-05-12T12:03:01.321Z,236.25
2023-05-12T12:04:01.817Z,247.50
2023-05-12T12:05:02.122Z,264.38
2023-05-12T12:06:02.588Z,258.75
2023-05-12T12:07:03.010Z,225.00
2023-05-12T12:08:03.465Z,208.13
2023-05-12T12:09:03.939Z,146.25
2023-05-12T12:10:04.350Z,174.38
2023-05-12T12:11:04.795Z,180.00
2023-05-12T12:12:05.236Z,180.00
2023-05-12T12:13:08.668Z,180.00
2023-05-12T12:14:06.122Z,185.63
2023-05-12T12:15:09.205Z,174.38
2023-05-12T12:16:07.081Z,180.00
2023-05-12T12:17:07.446Z,174.38
2023-05-12T12:18:07.987Z,174.38
2023-05-12T12:19:08.537Z,174.38
2023-05-12T12:20:08.775Z,174.38
2023-05-12T12:21:09.224Z,174.38
2023-05-12T12:22:09.661Z,180.00
2023-05-12T12:23:10.106Z,185.63
2023-05-12T12:24:10.550Z,185.63
2023-05-12T12:25:11.008Z,185.63
2023-05-12T12:26:11.440Z,174.38
2023-05-12T12:27:11.883Z,174.38
2023-05-12T12:28:12.345Z,168.75
2023-05-12T12:29:12.777Z,168.75
2023-05-12T12:30:13.273Z,168.75
2023-05-12T12:31:13.696Z,168.75
2023-05-12T12:32:14.099Z,168.75
2023-05-12T12:33:14.632Z,174.38
2023-05-12T12:34:14.965Z,180.00
2023-05-12T12:35:15.438Z,191.25
2023-05-12T12:36:15.864Z,202.50
2023-05-12T12:37:16.368Z,185.63
2023-05-12T12:38:16.768Z,180.00
2023-05-12T12:39:19.657Z,191.25
2023-05-12T12:40:17.622Z,196.88
2023-05-12T12:41:18.069Z,208.13
2023-05-12T12:42:19.157Z,213.75
2023-05-12T12:43:19.665Z,208.13